sensor_id;sensor_type;location;lat;lon;timestamp;temperature;humidity
52113;DHT22;38109;49.488;31.988;2023-04-15T00:00:57;9.60;83.90
52113;DHT22;38109;49.488;31.988;2023-04-15T00:03:24;9.50;84.10
52113;DHT22;38109;49.488;31.988;2023-04-15T00:05:49;9.50;84.30
52113;DHT22;38109;49.488;31.988;2023-04-15T00:08:15;9.50;84.40
52113;DHT22;38109;49.488;31.988;2023-04-15T00:10:41;9.50;84.50
52113;DHT22;38109;49.488;31.988;2023-04-15T00:13:08;9.50;84.70
52113;DHT22;38109;49.488;31.988;2023-04-15T00:15:34;9.50;84.70
52113;DHT22;38109;49.488;31.988;2023-04-15T00:18:01;9.50;84.80
52113;DHT22;38109;49.488;31.988;2023-04-15T00:20:26;9.50;84.80
52113;DHT22;38109;49.488;31.988;2023-04-15T00:22:52;9.50;84.80
52113;DHT22;38109;49.488;31.988;2023-04-15T00:25:21;9.50;84.90
52113;DHT22;38109;49.488;31.988;2023-04-15T00:27:47;9.50;84.90
52113;DHT22;38109;49.488;31.988;2023-04-15T00:30:13;9.40;84.70
52113;DHT22;38109;49.488;31.988;2023-04-15T00:32:38;9.40;84.90
52113;DHT22;38109;49.488;31.988;2023-04-15T00:35:05;9.40;85.10
52113;DHT22;38109;49.488;31.988;2023-04-15T00:37:30;9.40;85.10
52113;DHT22;38109;49.488;31.988;2023-04-15T00:39:56;9.40;85.00
52113;DHT22;38109;49.488;31.988;2023-04-15T00:42:22;9.40;85.00
52113;DHT22;38109;49.488;31.988;2023-04-15T00:44:49;9.40;85.00
52113;DHT22;38109;49.488;31.988;2023-04-15T00:47:15;9.30;85.10
52113;DHT22;38109;49.488;31.988;2023-04-15T00:49:41;9.30;85.30
52113;DHT22;38109;49.488;31.988;2023-04-15T00:52:07;9.30;85.40
52113;DHT22;38109;49.488;31.988;2023-04-15T00:54:33;9.30;85.40
52113;DHT22;38109;49.488;31.988;2023-04-15T00:56:58;9.30;85.30
52113;DHT22;38109;49.488;31.988;2023-04-15T00:59:25;9.30;85.30
52113;DHT22;38109;49.488;31.988;2023-04-15T01:01:52;9.30;85.30
52113;DHT22;38109;49.488;31.988;2023-04-15T01:04:18;9.30;85.20
52113;DHT22;38109;49.488;31.988;2023-04-15T01:06:43;9.30;85.30
52113;DHT22;38109;49.488;31.988;2023-04-15T01:09:09;9.30;85.30
52113;DHT22;38109;49.488;31.988;2023-04-15T01:11:38;9.30;85.40
52113;DHT22;38109;49.488;31.988;2023-04-15T01:14:04;9.30;85.30
52113;DHT22;38109;49.488;31.988;2023-04-15T01:16:30;9.20;85.30
52113;DHT22;38109;49.488;31.988;2023-04-15T01:18:56;9.20;85.30
52113;DHT22;38109;49.488;31.988;2023-04-15T01:21:22;9.30;85.10
52113;DHT22;38109;49.488;31.988;2023-04-15T01:23:48;9.30;85.00
52113;DHT22;38109;49.488;31.988;2023-04-15T01:26:15;9.20;85.10
52113;DHT22;38109;49.488;31.988;2023-04-15T01:28:42;9.20;85.00
52113;DHT22;38109;49.488;31.988;2023-04-15T01:31:09;9.20;85.10
52113;DHT22;38109;49.488;31.988;2023-04-15T01:33:36;9.30;85.20
52113;DHT22;38109;49.488;31.988;2023-04-15T01:36:03;9.30;85.50
52113;DHT22;38109;49.488;31.988;2023-04-15T01:38:29;9.30;84.80
52113;DHT22;38109;49.488;31.988;2023-04-15T01:40:56;9.30;84.70
52113;DHT22;38109;49.488;31.988;2023-04-15T01:43:22;9.30;84.40
52113;DHT22;38109;49.488;31.988;2023-04-15T01:45:48;9.30;84.30
52113;DHT22;38109;49.488;31.988;2023-04-15T01:48:14;9.30;84.20
52113;DHT22;38109;49.488;31.988;2023-04-15T01:50:40;9.20;83.80
52113;DHT22;38109;49.488;31.988;2023-04-15T01:53:05;9.20;84.00
52113;DHT22;38109;49.488;31.988;2023-04-15T01:55:31;9.20;83.80
52113;DHT22;38109;49.488;31.988;2023-04-15T01:57:57;9.20;83.90
52113;DHT22;38109;49.488;31.988;2023-04-15T02:00:22;9.20;84.00
52113;DHT22;38109;49.488;31.988;2023-04-15T02:02:48;9.20;84.10
52113;DHT22;38109;49.488;31.988;2023-04-15T02:05:14;9.20;84.20
52113;DHT22;38109;49.488;31.988;2023-04-15T02:07:41;9.20;84.20
52113;DHT22;38109;49.488;31.988;2023-04-15T02:10:08;9.20;84.10
52113;DHT22;38109;49.488;31.988;2023-04-15T02:12:34;9.20;84.00
52113;DHT22;38109;49.488;31.988;2023-04-15T02:15:00;9.20;84.00
52113;DHT22;38109;49.488;31.988;2023-04-15T02:17:26;9.20;84.00
52113;DHT22;38109;49.488;31.988;2023-04-15T02:19:52;9.20;84.10
52113;DHT22;38109;49.488;31.988;2023-04-15T02:22:18;9.20;84.20
52113;DHT22;38109;49.488;31.988;2023-04-15T02:24:43;9.20;84.20
52113;DHT22;38109;49.488;31.988;2023-04-15T02:27:15;9.20;84.00
52113;DHT22;38109;49.488;31.988;2023-04-15T02:29:41;9.20;84.00
52113;DHT22;38109;49.488;31.988;2023-04-15T02:32:07;9.20;83.30
52113;DHT22;38109;49.488;31.988;2023-04-15T02:34:33;9.20;83.20
52113;DHT22;38109;49.488;31.988;2023-04-15T02:36:58;9.20;83.10
52113;DHT22;38109;49.488;31.988;2023-04-15T02:39:24;9.20;82.90
52113;DHT22;38109;49.488;31.988;2023-04-15T02:41:49;9.20;82.60
52113;DHT22;38109;49.488;31.988;2023-04-15T02:44:18;9.20;82.50
52113;DHT22;38109;49.488;31.988;2023-04-15T02:46:48;9.20;82.50
52113;DHT22;38109;49.488;31.988;2023-04-15T02:49:19;9.20;82.20
52113;DHT22;38109;49.488;31.988;2023-04-15T02:51:45;9.20;82.00
52113;DHT22;38109;49.488;31.988;2023-04-15T02:54:20;9.20;81.90
52113;DHT22;38109;49.488;31.988;2023-04-15T02:56:50;9.20;81.90
52113;DHT22;38109;49.488;31.988;2023-04-15T02:59:16;9.10;81.80
52113;DHT22;38109;49.488;31.988;2023-04-15T03:01:42;9.10;81.80
52113;DHT22;38109;49.488;31.988;2023-04-15T03:04:08;9.10;81.70
52113;DHT22;38109;49.488;31.988;2023-04-15T03:06:34;9.10;81.60
52113;DHT22;38109;49.488;31.988;2023-04-15T03:09:00;9.10;81.40
52113;DHT22;38109;49.488;31.988;2023-04-15T03:11:27;9.10;81.20
52113;DHT22;38109;49.488;31.988;2023-04-15T03:13:53;9.10;81.20
52113;DHT22;38109;49.488;31.988;2023-04-15T03:16:18;9.10;81.20
52113;DHT22;38109;49.488;31.988;2023-04-15T03:18:44;9.10;81.30
52113;DHT22;38109;49.488;31.988;2023-04-15T03:21:10;9.10;81.40
52113;DHT22;38109;49.488;31.988;2023-04-15T03:23:35;9.10;81.30
52113;DHT22;38109;49.488;31.988;2023-04-15T03:26:02;9.10;81.40
52113;DHT22;38109;49.488;31.988;2023-04-15T03:28:27;9.10;81.60
52113;DHT22;38109;49.488;31.988;2023-04-15T03:30:54;9.10;81.70
52113;DHT22;38109;49.488;31.988;2023-04-15T03:33:20;9.10;81.60
52113;DHT22;38109;49.488;31.988;2023-04-15T03:35:46;9.10;81.70
52113;DHT22;38109;49.488;31.988;2023-04-15T03:38:11;9.10;81.70
52113;DHT22;38109;49.488;31.988;2023-04-15T03:40:39;9.10;81.70
52113;DHT22;38109;49.488;31.988;2023-04-15T03:43:05;9.10;81.80
52113;DHT22;38109;49.488;31.988;2023-04-15T03:45:31;9.10;81.80
52113;DHT22;38109;49.488;31.988;2023-04-15T03:47:57;9.10;81.90
52113;DHT22;38109;49.488;31.988;2023-04-15T03:50:23;9.10;81.80
52113;DHT22;38109;49.488;31.988;2023-04-15T03:52:48;9.10;81.50
52113;DHT22;38109;49.488;31.988;2023-04-15T03:55:14;9.10;81.10
52113;DHT22;38109;49.488;31.988;2023-04-15T03:57:40;9.10;81.10
52113;DHT22;38109;49.488;31.988;2023-04-15T04:00:06;9.10;80.70
52113;DHT22;38109;49.488;31.988;2023-04-15T04:02:33;9.10;80.90
52113;DHT22;38109;49.488;31.988;2023-04-15T04:04:59;9.10;81.10
52113;DHT22;38109;49.488;31.988;2023-04-15T04:07:25;9.10;80.90
52113;DHT22;38109;49.488;31.988;2023-04-15T04:09:51;9.10;81.60
52113;DHT22;38109;49.488;31.988;2023-04-15T04:12:16;9.00;80.90
52113;DHT22;38109;49.488;31.988;2023-04-15T04:14:42;9.10;81.20
52113;DHT22;38109;49.488;31.988;2023-04-15T04:17:08;9.10;81.30
52113;DHT22;38109;49.488;31.988;2023-04-15T04:19:34;9.10;81.30
52113;DHT22;38109;49.488;31.988;2023-04-15T04:21:59;9.10;81.20
52113;DHT22;38109;49.488;31.988;2023-04-15T04:24:25;9.10;81.30
52113;DHT22;38109;49.488;31.988;2023-04-15T04:26:51;9.10;81.40
52113;DHT22;38109;49.488;31.988;2023-04-15T04:29:17;9.10;81.50
52113;DHT22;38109;49.488;31.988;2023-04-15T04:31:42;9.00;81.50
52113;DHT22;38109;49.488;31.988;2023-04-15T04:34:08;9.00;81.40
52113;DHT22;38109;49.488;31.988;2023-04-15T04:36:33;9.00;81.40
52113;DHT22;38109;49.488;31.988;2023-04-15T04:38:59;9.10;81.30
52113;DHT22;38109;49.488;31.988;2023-04-15T04:41:26;9.00;81.10
52113;DHT22;38109;49.488;31.988;2023-04-15T04:43:51;9.00;81.20
52113;DHT22;38109;49.488;31.988;2023-04-15T04:46:17;9.00;81.40
52113;DHT22;38109;49.488;31.988;2023-04-15T04:48:43;9.00;81.60
52113;DHT22;38109;49.488;31.988;2023-04-15T04:51:09;9.00;81.70
52113;DHT22;38109;49.488;31.988;2023-04-15T04:53:35;9.00;81.90
52113;DHT22;38109;49.488;31.988;2023-04-15T04:56:02;9.00;81.60
52113;DHT22;38109;49.488;31.988;2023-04-15T04:58:28;9.00;81.20
52113;DHT22;38109;49.488;31.988;2023-04-15T05:00:53;9.10;81.10
52113;DHT22;38109;49.488;31.988;2023-04-15T05:03:19;9.10;81.00
52113;DHT22;38109;49.488;31.988;2023-04-15T05:05:46;9.10;80.70
52113;DHT22;38109;49.488;31.988;2023-04-15T05:08:13;9.00;80.40
52113;DHT22;38109;49.488;31.988;2023-04-15T05:10:39;9.00;79.90
52113;DHT22;38109;49.488;31.988;2023-04-15T05:13:05;9.00;79.80
52113;DHT22;38109;49.488;31.988;2023-04-15T05:15:31;9.00;79.80
52113;DHT22;38109;49.488;31.988;2023-04-15T05:17:57;9.00;79.40
52113;DHT22;38109;49.488;31.988;2023-04-15T05:20:23;9.00;79.40
52113;DHT22;38109;49.488;31.988;2023-04-15T05:22:48;9.00;79.40
52113;DHT22;38109;49.488;31.988;2023-04-15T05:25:14;9.00;79.40
52113;DHT22;38109;49.488;31.988;2023-04-15T05:27:40;9.00;79.60
52113;DHT22;38109;49.488;31.988;2023-04-15T05:30:07;9.00;79.60
52113;DHT22;38109;49.488;31.988;2023-04-15T05:32:33;8.90;79.70
52113;DHT22;38109;49.488;31.988;2023-04-15T05:34:59;9.00;79.90
52113;DHT22;38109;49.488;31.988;2023-04-15T05:37:24;9.00;80.20
52113;DHT22;38109;49.488;31.988;2023-04-15T05:39:50;9.00;80.40
52113;DHT22;38109;49.488;31.988;2023-04-15T05:42:16;8.90;80.50
52113;DHT22;38109;49.488;31.988;2023-04-15T05:44:42;9.00;80.50
52113;DHT22;38109;49.488;31.988;2023-04-15T05:47:07;9.00;80.50
52113;DHT22;38109;49.488;31.988;2023-04-15T05:49:34;8.90;80.30
52113;DHT22;38109;49.488;31.988;2023-04-15T05:52:00;8.90;80.30
52113;DHT22;38109;49.488;31.988;2023-04-15T05:54:26;8.90;80.30
52113;DHT22;38109;49.488;31.988;2023-04-15T05:56:52;8.90;80.30
52113;DHT22;38109;49.488;31.988;2023-04-15T05:59:18;8.90;80.50
52113;DHT22;38109;49.488;31.988;2023-04-15T06:01:44;8.90;80.30
52113;DHT22;38109;49.488;31.988;2023-04-15T06:04:09;8.90;80.30
52113;DHT22;38109;49.488;31.988;2023-04-15T06:06:36;8.90;80.60
52113;DHT22;38109;49.488;31.988;2023-04-15T06:09:03;8.90;80.70
52113;DHT22;38109;49.488;31.988;2023-04-15T06:11:28;8.90;80.60
52113;DHT22;38109;49.488;31.988;2023-04-15T06:13:54;8.90;80.50
52113;DHT22;38109;49.488;31.988;2023-04-15T06:16:21;8.90;80.50
52113;DHT22;38109;49.488;31.988;2023-04-15T06:18:47;8.90;80.50
52113;DHT22;38109;49.488;31.988;2023-04-15T06:21:13;8.90;80.70
52113;DHT22;38109;49.488;31.988;2023-04-15T06:23:38;8.80;80.40
52113;DHT22;38109;49.488;31.988;2023-04-15T06:26:06;8.80;80.50
52113;DHT22;38109;49.488;31.988;2023-04-15T06:28:31;8.80;80.60
52113;DHT22;38109;49.488;31.988;2023-04-15T06:30:57;8.80;80.70
52113;DHT22;38109;49.488;31.988;2023-04-15T06:33:23;8.80;80.70
52113;DHT22;38109;49.488;31.988;2023-04-15T06:35:48;8.80;80.70
52113;DHT22;38109;49.488;31.988;2023-04-15T06:38:14;8.80;80.80
52113;DHT22;38109;49.488;31.988;2023-04-15T06:40:40;8.80;80.80
52113;DHT22;38109;49.488;31.988;2023-04-15T06:43:06;8.80;80.80
52113;DHT22;38109;49.488;31.988;2023-04-15T06:45:32;8.80;80.80
52113;DHT22;38109;49.488;31.988;2023-04-15T06:47:58;8.80;81.00
52113;DHT22;38109;49.488;31.988;2023-04-15T06:50:23;8.90;80.80
52113;DHT22;38109;49.488;31.988;2023-04-15T06:52:49;8.80;80.90
52113;DHT22;38109;49.488;31.988;2023-04-15T06:55:17;8.80;80.80
52113;DHT22;38109;49.488;31.988;2023-04-15T06:57:46;8.80;80.80
52113;DHT22;38109;49.488;31.988;2023-04-15T07:00:32;8.80;80.70
52113;DHT22;38109;49.488;31.988;2023-04-15T07:03:05;8.80;80.60
52113;DHT22;38109;49.488;31.988;2023-04-15T07:05:30;8.80;80.60
52113;DHT22;38109;49.488;31.988;2023-04-15T07:07:57;8.80;80.40
52113;DHT22;38109;49.488;31.988;2023-04-15T07:10:22;8.70;80.50
52113;DHT22;38109;49.488;31.988;2023-04-15T07:12:48;8.80;80.70
52113;DHT22;38109;49.488;31.988;2023-04-15T07:15:15;8.80;80.70
52113;DHT22;38109;49.488;31.988;2023-04-15T07:17:41;8.80;80.80
52113;DHT22;38109;49.488;31.988;2023-04-15T07:20:08;8.80;80.80
52113;DHT22;38109;49.488;31.988;2023-04-15T07:22:34;8.80;80.60
52113;DHT22;38109;49.488;31.988;2023-04-15T07:25:00;8.80;80.60
52113;DHT22;38109;49.488;31.988;2023-04-15T07:27:25;8.80;80.60
52113;DHT22;38109;49.488;31.988;2023-04-15T07:29:52;8.80;80.50
52113;DHT22;38109;49.488;31.988;2023-04-15T07:32:18;8.80;80.50
52113;DHT22;38109;49.488;31.988;2023-04-15T07:34:44;8.80;80.50
52113;DHT22;38109;49.488;31.988;2023-04-15T07:37:10;8.80;80.60
52113;DHT22;38109;49.488;31.988;2023-04-15T07:39:35;8.80;80.60
52113;DHT22;38109;49.488;31.988;2023-04-15T07:42:02;8.80;80.50
52113;DHT22;38109;49.488;31.988;2023-04-15T07:44:28;8.80;80.70
52113;DHT22;38109;49.488;31.988;2023-04-15T07:46:55;8.80;80.70
52113;DHT22;38109;49.488;31.988;2023-04-15T07:49:21;8.80;80.70
52113;DHT22;38109;49.488;31.988;2023-04-15T07:51:47;8.80;80.60
52113;DHT22;38109;49.488;31.988;2023-04-15T07:54:13;8.80;80.70
52113;DHT22;38109;49.488;31.988;2023-04-15T07:56:39;8.80;80.70
52113;DHT22;38109;49.488;31.988;2023-04-15T07:59:05;8.80;80.80
52113;DHT22;38109;49.488;31.988;2023-04-15T08:01:31;8.80;80.90
52113;DHT22;38109;49.488;31.988;2023-04-15T08:03:58;8.90;80.80
52113;DHT22;38109;49.488;31.988;2023-04-15T08:06:24;8.80;80.70
52113;DHT22;38109;49.488;31.988;2023-04-15T08:08:49;8.80;80.70
52113;DHT22;38109;49.488;31.988;2023-04-15T08:11:15;8.90;80.80
52113;DHT22;38109;49.488;31.988;2023-04-15T08:13:41;8.80;80.80
52113;DHT22;38109;49.488;31.988;2023-04-15T08:16:20;8.90;80.80
52113;DHT22;38109;49.488;31.988;2023-04-15T08:18:47;8.80;80.80
52113;DHT22;38109;49.488;31.988;2023-04-15T08:21:13;8.80;80.90
52113;DHT22;38109;49.488;31.988;2023-04-15T08:23:39;8.90;80.90
52113;DHT22;38109;49.488;31.988;2023-04-15T08:26:05;8.90;81.10
52113;DHT22;38109;49.488;31.988;2023-04-15T08:28:31;8.90;81.20
52113;DHT22;38109;49.488;31.988;2023-04-15T08:30:56;8.80;80.90
52113;DHT22;38109;49.488;31.988;2023-04-15T08:33:22;8.80;81.00
52113;DHT22;38109;49.488;31.988;2023-04-15T08:35:56;8.80;81.00
52113;DHT22;38109;49.488;31.988;2023-04-15T08:38:23;8.80;81.00
52113;DHT22;38109;49.488;31.988;2023-04-15T08:40:48;8.80;81.00
52113;DHT22;38109;49.488;31.988;2023-04-15T08:43:20;8.80;81.10
52113;DHT22;38109;49.488;31.988;2023-04-15T08:45:47;8.80;81.30
52113;DHT22;38109;49.488;31.988;2023-04-15T08:48:16;8.80;81.30
52113;DHT22;38109;49.488;31.988;2023-04-15T08:50:42;8.80;81.30
52113;DHT22;38109;49.488;31.988;2023-04-15T08:53:09;8.80;81.30
52113;DHT22;38109;49.488;31.988;2023-04-15T08:55:41;8.80;81.30
52113;DHT22;38109;49.488;31.988;2023-04-15T08:58:09;8.80;81.30
52113;DHT22;38109;49.488;31.988;2023-04-15T09:00:35;8.80;81.40
52113;DHT22;38109;49.488;31.988;2023-04-15T09:03:04;8.70;81.30
52113;DHT22;38109;49.488;31.988;2023-04-15T09:05:39;8.70;81.20
52113;DHT22;38109;49.488;31.988;2023-04-15T09:08:05;8.70;81.30
52113;DHT22;38109;49.488;31.988;2023-04-15T09:10:32;8.70;81.50
52113;DHT22;38109;49.488;31.988;2023-04-15T09:12:58;8.70;81.50
52113;DHT22;38109;49.488;31.988;2023-04-15T09:15:24;8.70;81.50
52113;DHT22;38109;49.488;31.988;2023-04-15T09:17:56;8.70;81.60
52113;DHT22;38109;49.488;31.988;2023-04-15T09:20:22;8.80;81.60
52113;DHT22;38109;49.488;31.988;2023-04-15T09:27:02;8.80;81.20
52113;DHT22;38109;49.488;31.988;2023-04-15T09:33:29;8.80;81.50
52113;DHT22;38109;49.488;31.988;2023-04-15T09:36:01;8.80;81.40
52113;DHT22;38109;49.488;31.988;2023-04-15T09:38:27;8.80;81.30
52113;DHT22;38109;49.488;31.988;2023-04-15T09:40:53;8.80;81.10
52113;DHT22;38109;49.488;31.988;2023-04-15T09:43:19;8.80;81.30
52113;DHT22;38109;49.488;31.988;2023-04-15T09:45:50;8.80;81.40
52113;DHT22;38109;49.488;31.988;2023-04-15T09:48:21;8.90;81.60
52113;DHT22;38109;49.488;31.988;2023-04-15T09:50:48;8.90;81.40
52113;DHT22;38109;49.488;31.988;2023-04-15T09:53:21;8.90;81.50
52113;DHT22;38109;49.488;31.988;2023-04-15T09:55:54;8.90;81.30
52113;DHT22;38109;49.488;31.988;2023-04-15T09:58:33;8.90;81.00
52113;DHT22;38109;49.488;31.988;2023-04-15T10:01:02;8.90;81.00
52113;DHT22;38109;49.488;31.988;2023-04-15T10:03:31;8.90;80.90
52113;DHT22;38109;49.488;31.988;2023-04-15T10:05:59;8.80;80.80
52113;DHT22;38109;49.488;31.988;2023-04-15T10:08:27;8.90;81.10
52113;DHT22;38109;49.488;31.988;2023-04-15T10:10:53;8.90;81.20
52113;DHT22;38109;49.488;31.988;2023-04-15T10:13:24;8.90;81.10
52113;DHT22;38109;49.488;31.988;2023-04-15T10:15:55;8.90;81.30
52113;DHT22;38109;49.488;31.988;2023-04-15T10:18:23;8.90;81.00
52113;DHT22;38109;49.488;31.988;2023-04-15T10:20:49;9.00;81.10
52113;DHT22;38109;49.488;31.988;2023-04-15T10:23:15;9.00;81.00
52113;DHT22;38109;49.488;31.988;2023-04-15T10:25:44;9.00;81.00
52113;DHT22;38109;49.488;31.988;2023-04-15T10:28:10;9.00;81.10
52113;DHT22;38109;49.488;31.988;2023-04-15T10:30:37;9.00;81.00
52113;DHT22;38109;49.488;31.988;2023-04-15T10:33:04;9.00;81.00
52113;DHT22;38109;49.488;31.988;2023-04-15T10:35:31;9.00;80.80
52113;DHT22;38109;49.488;31.988;2023-04-15T10:37:58;9.00;80.90
52113;DHT22;38109;49.488;31.988;2023-04-15T10:40:28;9.00;81.00
52113;DHT22;38109;49.488;31.988;2023-04-15T10:42:57;9.00;81.10
52113;DHT22;38109;49.488;31.988;2023-04-15T10:45:28;9.00;80.80
52113;DHT22;38109;49.488;31.988;2023-04-15T10:47:56;9.00;80.80
52113;DHT22;38109;49.488;31.988;2023-04-15T10:50:25;9.00;80.70
52113;DHT22;38109;49.488;31.988;2023-04-15T10:52:51;9.00;80.70
52113;DHT22;38109;49.488;31.988;2023-04-15T10:55:22;9.00;80.80
52113;DHT22;38109;49.488;31.988;2023-04-15T10:57:52;9.00;80.80
52113;DHT22;38109;49.488;31.988;2023-04-15T11:00:19;8.90;80.80
52113;DHT22;38109;49.488;31.988;2023-04-15T11:02:50;9.00;80.90
52113;DHT22;38109;49.488;31.988;2023-04-15T11:05:17;9.00;80.90
52113;DHT22;38109;49.488;31.988;2023-04-15T11:12:39;9.00;80.90
52113;DHT22;38109;49.488;31.988;2023-04-15T11:15:28;9.00;81.00
52113;DHT22;38109;49.488;31.988;2023-04-15T11:20:40;9.10;80.90
52113;DHT22;38109;49.488;31.988;2023-04-15T11:23:06;9.10;80.80
52113;DHT22;38109;49.488;31.988;2023-04-15T11:25:34;9.10;80.80
52113;DHT22;38109;49.488;31.988;2023-04-15T11:28:00;9.10;80.80
52113;DHT22;38109;49.488;31.988;2023-04-15T11:30:32;9.10;80.80
52113;DHT22;38109;49.488;31.988;2023-04-15T11:33:00;9.20;80.90
52113;DHT22;38109;49.488;31.988;2023-04-15T11:35:30;9.20;80.90
52113;DHT22;38109;49.488;31.988;2023-04-15T11:37:56;9.20;80.80
52113;DHT22;38109;49.488;31.988;2023-04-15T11:40:27;9.20;80.80
52113;DHT22;38109;49.488;31.988;2023-04-15T11:43:10;9.20;80.70
52113;DHT22;38109;49.488;31.988;2023-04-15T11:45:57;9.20;80.70
52113;DHT22;38109;49.488;31.988;2023-04-15T11:51:02;9.20;80.70
52113;DHT22;38109;49.488;31.988;2023-04-15T11:53:38;9.20;80.50
52113;DHT22;38109;49.488;31.988;2023-04-15T11:56:06;9.20;80.50
52113;DHT22;38109;49.488;31.988;2023-04-15T11:58:34;9.20;80.50
52113;DHT22;38109;49.488;31.988;2023-04-15T12:01:02;9.20;80.40
52113;DHT22;38109;49.488;31.988;2023-04-15T12:03:30;9.20;80.30
52113;DHT22;38109;49.488;31.988;2023-04-15T12:06:19;9.20;80.20
52113;DHT22;38109;49.488;31.988;2023-04-15T12:11:37;9.20;80.20
52113;DHT22;38109;49.488;31.988;2023-04-15T12:14:10;9.30;80.10
52113;DHT22;38109;49.488;31.988;2023-04-15T12:16:41;9.30;80.00
52113;DHT22;38109;49.488;31.988;2023-04-15T12:19:12;9.20;79.90
52113;DHT22;38109;49.488;31.988;2023-04-15T12:21:40;9.20;79.90
52113;DHT22;38109;49.488;31.988;2023-04-15T12:24:08;9.30;80.10
52113;DHT22;38109;49.488;31.988;2023-04-15T12:29:14;9.30;79.80
52113;DHT22;38109;49.488;31.988;2023-04-15T12:34:40;9.30;80.00
52113;DHT22;38109;49.488;31.988;2023-04-15T12:37:08;9.30;80.00
52113;DHT22;38109;49.488;31.988;2023-04-15T12:39:38;9.40;80.00
52113;DHT22;38109;49.488;31.988;2023-04-15T12:42:05;9.40;79.70
52113;DHT22;38109;49.488;31.988;2023-04-15T12:44:31;9.40;79.70
52113;DHT22;38109;49.488;31.988;2023-04-15T12:46:57;9.40;79.50
52113;DHT22;38109;49.488;31.988;2023-04-15T12:49:25;9.40;79.40
52113;DHT22;38109;49.488;31.988;2023-04-15T12:51:57;9.40;79.40
52113;DHT22;38109;49.488;31.988;2023-04-15T12:54:26;9.40;79.60
52113;DHT22;38109;49.488;31.988;2023-04-15T12:56:53;9.50;79.80
52113;DHT22;38109;49.488;31.988;2023-04-15T12:59:19;9.50;79.80
52113;DHT22;38109;49.488;31.988;2023-04-15T13:01:46;9.50;79.80
52113;DHT22;38109;49.488;31.988;2023-04-15T13:04:12;9.50;79.80
52113;DHT22;38109;49.488;31.988;2023-04-15T13:06:38;9.50;79.70
52113;DHT22;38109;49.488;31.988;2023-04-15T13:09:05;9.50;79.90
52113;DHT22;38109;49.488;31.988;2023-04-15T13:11:31;9.50;80.00
52113;DHT22;38109;49.488;31.988;2023-04-15T13:14:00;9.50;79.90
52113;DHT22;38109;49.488;31.988;2023-04-15T13:16:26;9.50;80.00
52113;DHT22;38109;49.488;31.988;2023-04-15T13:18:51;9.50;80.00
52113;DHT22;38109;49.488;31.988;2023-04-15T13:21:18;9.50;79.90
52113;DHT22;38109;49.488;31.988;2023-04-15T13:23:43;9.50;79.80
52113;DHT22;38109;49.488;31.988;2023-04-15T13:26:10;9.50;79.90
52113;DHT22;38109;49.488;31.988;2023-04-15T13:28:35;9.50;80.00
52113;DHT22;38109;49.488;31.988;2023-04-15T13:31:01;9.50;79.90
52113;DHT22;38109;49.488;31.988;2023-04-15T13:33:27;9.40;79.80
52113;DHT22;38109;49.488;31.988;2023-04-15T13:35:53;9.40;79.80
52113;DHT22;38109;49.488;31.988;2023-04-15T13:38:19;9.40;79.90
52113;DHT22;38109;49.488;31.988;2023-04-15T13:40:44;9.40;79.80
52113;DHT22;38109;49.488;31.988;2023-04-15T13:43:10;9.40;80.00
52113;DHT22;38109;49.488;31.988;2023-04-15T13:45:36;9.30;79.80
52113;DHT22;38109;49.488;31.988;2023-04-15T13:48:02;9.30;80.10
52113;DHT22;38109;49.488;31.988;2023-04-15T13:50:28;9.40;80.20
52113;DHT22;38109;49.488;31.988;2023-04-15T13:52:54;9.30;80.10
52113;DHT22;38109;49.488;31.988;2023-04-15T13:55:19;9.40;80.40
52113;DHT22;38109;49.488;31.988;2023-04-15T13:57:46;9.40;80.30
52113;DHT22;38109;49.488;31.988;2023-04-15T14:00:12;9.40;80.40
52113;DHT22;38109;49.488;31.988;2023-04-15T14:02:39;9.40;80.60
52113;DHT22;38109;49.488;31.988;2023-04-15T14:05:06;9.40;80.60
52113;DHT22;38109;49.488;31.988;2023-04-15T14:07:32;9.40;80.60
52113;DHT22;38109;49.488;31.988;2023-04-15T14:09:58;9.40;80.60
52113;DHT22;38109;49.488;31.988;2023-04-15T14:12:24;9.40;80.60
52113;DHT22;38109;49.488;31.988;2023-04-15T14:14:49;9.40;80.40
52113;DHT22;38109;49.488;31.988;2023-04-15T14:17:15;9.40;80.20
52113;DHT22;38109;49.488;31.988;2023-04-15T14:19:41;9.40;80.30
52113;DHT22;38109;49.488;31.988;2023-04-15T14:22:06;9.40;80.40
52113;DHT22;38109;49.488;31.988;2023-04-15T14:24:32;9.40;80.60
52113;DHT22;38109;49.488;31.988;2023-04-15T14:26:58;9.40;80.50
52113;DHT22;38109;49.488;31.988;2023-04-15T14:29:24;9.30;80.40
52113;DHT22;38109;49.488;31.988;2023-04-15T14:31:49;9.30;80.50
52113;DHT22;38109;49.488;31.988;2023-04-15T14:34:15;9.30;80.90
52113;DHT22;38109;49.488;31.988;2023-04-15T14:36:41;9.30;80.70
52113;DHT22;38109;49.488;31.988;2023-04-15T14:39:07;9.40;80.90
52113;DHT22;38109;49.488;31.988;2023-04-15T14:41:33;9.40;81.00
52113;DHT22;38109;49.488;31.988;2023-04-15T14:43:59;9.40;80.90
52113;DHT22;38109;49.488;31.988;2023-04-15T14:46:25;9.40;80.80
52113;DHT22;38109;49.488;31.988;2023-04-15T14:48:51;9.40;80.80
52113;DHT22;38109;49.488;31.988;2023-04-15T14:51:17;9.40;80.90
52113;DHT22;38109;49.488;31.988;2023-04-15T14:53:44;9.40;80.90
52113;DHT22;38109;49.488;31.988;2023-04-15T14:56:10;9.40;81.10
52113;DHT22;38109;49.488;31.988;2023-04-15T14:58:36;9.40;81.20
52113;DHT22;38109;49.488;31.988;2023-04-15T15:01:03;9.40;81.10
52113;DHT22;38109;49.488;31.988;2023-04-15T15:03:29;9.40;81.20
52113;DHT22;38109;49.488;31.988;2023-04-15T15:05:55;9.40;81.20
52113;DHT22;38109;49.488;31.988;2023-04-15T15:08:22;9.40;81.10
52113;DHT22;38109;49.488;31.988;2023-04-15T15:10:48;9.40;81.10
52113;DHT22;38109;49.488;31.988;2023-04-15T15:13:13;9.40;81.00
52113;DHT22;38109;49.488;31.988;2023-04-15T15:15:40;9.40;81.10
52113;DHT22;38109;49.488;31.988;2023-04-15T15:18:06;9.30;81.20
52113;DHT22;38109;49.488;31.988;2023-04-15T15:20:32;9.40;81.30
52113;DHT22;38109;49.488;31.988;2023-04-15T15:22:59;9.30;81.10
52113;DHT22;38109;49.488;31.988;2023-04-15T15:25:24;9.30;81.20
52113;DHT22;38109;49.488;31.988;2023-04-15T15:27:52;9.30;81.20
52113;DHT22;38109;49.488;31.988;2023-04-15T15:30:17;9.30;81.30
52113;DHT22;38109;49.488;31.988;2023-04-15T15:32:43;9.30;81.30
52113;DHT22;38109;49.488;31.988;2023-04-15T15:35:09;9.30;81.40
52113;DHT22;38109;49.488;31.988;2023-04-15T15:37:36;9.30;81.40
52113;DHT22;38109;49.488;31.988;2023-04-15T15:40:05;9.30;81.70
52113;DHT22;38109;49.488;31.988;2023-04-15T15:42:32;9.30;81.70
52113;DHT22;38109;49.488;31.988;2023-04-15T15:44:58;9.30;81.80
52113;DHT22;38109;49.488;31.988;2023-04-15T15:47:23;9.30;81.80
52113;DHT22;38109;49.488;31.988;2023-04-15T15:49:51;9.30;81.90
52113;DHT22;38109;49.488;31.988;2023-04-15T15:52:17;9.30;81.90
52113;DHT22;38109;49.488;31.988;2023-04-15T15:54:45;9.30;82.00